Welcome to La Porte Aviation Services!

An aviation adventure awaits

Current Weather Conditions

Available data for KPPO from the past 2 hours
LA PORTE, IN
Metar
KPPO 140635Z AUTO 24004KT 10SM SCT045 M03/M07 A3011 RMK AO2 T10341071

06:35 UTC

Wind: 240° 4kt

Visibility: 10 SM

Sky: SCT 4500 ft

Temp: -3 deg C / 26.6 deg F

Dewpoint: -7 deg C / 19.4 deg F

Pressure: 30.11 inHg

Pireps (2)
AZO UA /OV AZO/TM 0545/FL080/TP C208/TA M04/IC LGT-MOD CLR
PWK UA /OV OBK/TM 0508/FL185/TP B738/SK TOP185/TB LGT BLO 185/NEG ABV

Connect with us on Facebook!

Facebook By Weblizar Powered By Weblizar